Time;durP1;ratioP1;P1;durP2;ratioP2;P2;SDS_P1;SDS_P2;PMS_P1;PMS_P2;Temp;Humidity;BMP_temperature;BMP_pressure;BME280_temperature;BME280_humidity;BME280_pressure;Samples;Min_cycle;Max_cycle;Signal;HPM_P1;HPM_P2
2023/12/12 00:01:08;;;;;;;45.17;16.05;;;;;;;;;;6267560;28;20052;-65
2023/12/12 00:04:15;;;;;;;52.70;17.13;;;;;;;;;;6268833;28;20442;-64
2023/12/12 00:07:16;;;;;;;59.97;18.40;;;;;;;;;;6271013;28;20095;-66
2023/12/12 00:10:16;;;;;;;68.00;21.92;;;;;;;;;;6256615;28;20052;-66
2023/12/12 00:13:17;;;;;;;56.63;18.65;;;;;;;;;;6409192;22;20057;-64
2023/12/12 00:16:18;;;;;;;60.85;18.75;;;;;;;;;;6264619;28;20041;-63
2023/12/12 00:19:20;;;;;;;47.05;17.75;;;;;;;;;;6270352;28;20047;-64
2023/12/12 00:22:20;;;;;;;56.50;18.55;;;;;;;;;;6270956;28;20463;-63
2023/12/12 00:25:21;;;;;;;59.40;19.88;;;;;;;;;;6268449;28;20396;-64
2023/12/12 00:28:22;;;;;;;67.80;21.55;;;;;;;;;;6268590;28;20064;-66
2023/12/12 00:31:22;;;;;;;69.35;21.00;;;;;;;;;;6269113;28;20048;-64
2023/12/12 00:34:23;;;;;;;60.72;19.70;;;;;;;;;;6268934;28;20052;-66
2023/12/12 00:37:24;;;;;;;61.78;20.83;;;;;;;;;;6271494;28;20041;-65
2023/12/12 00:40:24;;;;;;;57.63;19.80;;;;;;;;;;6269820;28;20473;-65
2023/12/12 00:43:25;;;;;;;60.55;20.80;;;;;;;;;;6269618;28;20126;-65
2023/12/12 00:46:27;;;;;;;54.95;19.33;;;;;;;;;;6270598;28;20041;-65
2023/12/12 00:49:28;;;;;;;61.92;19.95;;;;;;;;;;6270357;28;20060;-66
2023/12/12 00:52:29;;;;;;;56.40;20.52;;;;;;;;;;6268506;28;20044;-65
2023/12/12 00:55:31;;;;;;;59.92;19.35;;;;;;;;;;6265541;28;20059;-65
2023/12/12 00:58:31;;;;;;;61.10;20.10;;;;;;;;;;6267586;28;20041;-66
2023/12/12 01:01:32;;;;;;;56.10;18.23;;;;;;;;;;6267093;28;20138;-66
2023/12/12 01:04:34;;;;;;;54.55;19.00;;;;;;;;;;6266556;28;20049;-64
2023/12/12 01:07:35;;;;;;;59.33;18.92;;;;;;;;;;6265523;28;20049;-65
2023/12/12 01:10:35;;;;;;;58.17;20.00;;;;;;;;;;6267266;28;20056;-66
2023/12/12 01:13:36;;;;;;;55.08;18.63;;;;;;;;;;6266477;28;20049;-66
2023/12/12 01:16:37;;;;;;;70.90;18.77;;;;;;;;;;6264531;28;20044;-64
2023/12/12 01:19:37;;;;;;;58.65;16.13;;;;;;;;;;6266429;28;20545;-65
2023/12/12 01:22:38;;;;;;;48.72;15.93;;;;;;;;;;6267472;28;20049;-65
2023/12/12 01:25:39;;;;;;;44.40;15.82;;;;;;;;;;6265885;28;20617;-65
2023/12/12 01:28:40;;;;;;;50.92;16.00;;;;;;;;;;6267592;28;20045;-65
2023/12/12 01:31:41;;;;;;;44.42;15.73;;;;;;;;;;6264992;28;20052;-64
2023/12/12 01:34:41;;;;;;;52.53;15.35;;;;;;;;;;6266255;28;20041;-65
2023/12/12 01:37:42;;;;;;;46.50;15.95;;;;;;;;;;6267946;28;20514;-66
2023/12/12 01:40:43;;;;;;;47.92;15.18;;;;;;;;;;6267338;28;20049;-63
2023/12/12 01:43:44;;;;;;;41.50;15.13;;;;;;;;;;6265749;28;20055;-65
2023/12/12 01:46:47;;;;;;;44.30;14.52;;;;;;;;;;6266816;28;20044;-65
2023/12/12 01:49:48;;;;;;;47.55;14.75;;;;;;;;;;6267933;28;20505;-64
2023/12/12 01:52:49;;;;;;;37.50;14.13;;;;;;;;;;6266952;28;20049;-65
2023/12/12 01:55:51;;;;;;;38.90;14.80;;;;;;;;;;6264792;28;20411;-64
2023/12/12 01:58:53;;;;;;;41.22;13.55;;;;;;;;;;6265418;28;20060;-65
2023/12/12 02:01:54;;;;;;;;;;;;;;;;;;6265928;28;20510;-64
2023/12/12 02:04:55;;;;;;;37.13;13.02;;;;;;;;;;6265694;28;19924;-65
2023/12/12 02:07:57;;;;;;;37.42;12.90;;;;;;;;;;6265999;28;20052;-63
2023/12/12 02:10:58;;;;;;;40.75;13.90;;;;;;;;;;6266285;28;20402;-64
2023/12/12 02:13:59;;;;;;;38.15;13.70;;;;;;;;;;6262693;28;20048;-65
2023/12/12 02:17:00;;;;;;;40.30;13.40;;;;;;;;;;6260263;28;20056;-65
2023/12/12 02:20:01;;;;;;;28.90;11.70;;;;;;;;;;6266549;28;20372;-63
2023/12/12 02:23:01;;;;;;;34.55;12.55;;;;;;;;;;6266303;28;20059;-65
2023/12/12 02:26:03;;;;;;;37.15;12.95;;;;;;;;;;6264175;28;20091;-65
2023/12/12 02:29:03;;;;;;;30.50;12.50;;;;;;;;;;6267218;28;20045;-64
2023/12/12 02:32:04;;;;;;;31.88;11.27;;;;;;;;;;6266597;28;20057;-64
2023/12/12 02:35:05;;;;;;;41.10;12.35;;;;;;;;;;6265219;28;20055;-64
2023/12/12 02:38:06;;;;;;;32.45;11.07;;;;;;;;;;6265600;28;20044;-65
2023/12/12 02:41:08;;;;;;;27.45;11.38;;;;;;;;;;6266899;28;20509;-65
2023/12/12 02:44:08;;;;;;;30.17;10.65;;;;;;;;;;6262052;28;20059;-66
2023/12/12 02:47:09;;;;;;;28.75;10.20;;;;;;;;;;6264221;28;20503;-65
2023/12/12 02:50:10;;;;;;;28.17;9.95;;;;;;;;;;6266077;28;20057;-65
2023/12/12 02:53:11;;;;;;;28.95;10.85;;;;;;;;;;6264869;28;20060;-65
2023/12/12 02:56:12;;;;;;;29.40;10.95;;;;;;;;;;6262058;28;20049;-64
2023/12/12 02:59:12;;;;;;;25.00;9.23;;;;;;;;;;6266388;28;20045;-65
2023/12/12 03:02:13;;;;;;;25.60;9.10;;;;;;;;;;6265495;28;20090;-65
2023/12/12 03:05:14;;;;;;;25.15;8.60;;;;;;;;;;6261483;28;20049;-65
2023/12/12 03:08:14;;;;;;;25.20;10.15;;;;;;;;;;6263953;28;20079;-66
2023/12/12 03:11:15;;;;;;;28.38;9.45;;;;;;;;;;6262821;28;20127;-64
2023/12/12 03:14:16;;;;;;;23.90;9.23;;;;;;;;;;6263231;28;20049;-66
2023/12/12 03:17:16;;;;;;;24.23;9.63;;;;;;;;;;6263333;28;20048;-63
2023/12/12 03:20:17;;;;;;;24.85;10.30;;;;;;;;;;6264681;28;20049;-63
2023/12/12 03:23:18;;;;;;;24.50;9.15;;;;;;;;;;6265704;28;20045;-66
2023/12/12 03:26:18;;;;;;;24.02;8.60;;;;;;;;;;6264681;28;20041;-65
2023/12/12 03:29:19;;;;;;;24.45;9.30;;;;;;;;;;6266047;28;20403;-65
2023/12/12 03:32:20;;;;;;;24.15;8.85;;;;;;;;;;6263985;28;20567;-65
2023/12/12 03:35:20;;;;;;;24.75;8.73;;;;;;;;;;6262888;28;20056;-65
2023/12/12 03:38:21;;;;;;;26.70;9.88;;;;;;;;;;6265788;28;20135;-65
2023/12/12 03:41:23;;;;;;;21.85;8.85;;;;;;;;;;6265932;28;20488;-64
2023/12/12 03:44:24;;;;;;;;;;;;;;;;;;6263236;28;20037;-66
2023/12/12 03:47:25;;;;;;;21.02;8.10;;;;;;;;;;6264204;28;19921;-65
2023/12/12 03:50:26;;;;;;;22.83;8.15;;;;;;;;;;6264703;28;20053;-65
2023/12/12 03:53:26;;;;;;;18.30;7.95;;;;;;;;;;6265373;28;20048;-65
2023/12/12 03:56:27;;;;;;;20.77;8.40;;;;;;;;;;6263394;28;21731;-64
2023/12/12 03:59:28;;;;;;;21.17;8.38;;;;;;;;;;6265505;28;20052;-62
2023/12/12 04:02:29;;;;;;;19.77;7.93;;;;;;;;;;6265202;28;20122;-64
2023/12/12 04:05:29;;;;;;;19.65;7.80;;;;;;;;;;6262803;28;20052;-63
2023/12/12 04:08:30;;;;;;;20.73;7.55;;;;;;;;;;6260165;28;20041;-64
2023/12/12 04:11:31;;;;;;;22.30;8.02;;;;;;;;;;6264919;28;20054;-63
2023/12/12 04:14:32;;;;;;;19.80;8.52;;;;;;;;;;6262262;28;20432;-64
2023/12/12 04:17:32;;;;;;;21.13;7.63;;;;;;;;;;6262639;28;20037;-64
2023/12/12 04:20:33;;;;;;;19.67;8.40;;;;;;;;;;6263017;28;20079;-65
2023/12/12 04:23:38;;;;;;;25.57;9.80;;;;;;;;;;6268411;28;20080;-66
2023/12/12 04:26:39;;;;;;;19.38;7.72;;;;;;;;;;6266394;28;20197;-63
2023/12/12 04:29:39;;;;;;;20.70;8.45;;;;;;;;;;6268687;28;20044;-63
2023/12/12 04:32:40;;;;;;;16.75;7.57;;;;;;;;;;6269649;28;20045;-65
2023/12/12 04:35:42;;;;;;;20.15;7.75;;;;;;;;;;6267507;28;20041;-65
2023/12/12 04:38:43;;;;;;;;;;;;;;;;;;6269134;28;20053;-64
2023/12/12 04:41:44;;;;;;;16.73;7.22;;;;;;;;;;6268405;28;19925;-64
2023/12/12 04:44:44;;;;;;;16.70;7.25;;;;;;;;;;6268146;28;20049;-65
2023/12/12 04:47:45;;;;;;;17.67;7.20;;;;;;;;;;6268242;28;20483;-65
2023/12/12 04:50:46;;;;;;;16.48;7.05;;;;;;;;;;6268676;28;20049;-64
2023/12/12 04:53:46;;;;;;;17.33;7.75;;;;;;;;;;6267955;28;20083;-65
2023/12/12 04:56:47;;;;;;;15.88;7.30;;;;;;;;;;6268212;28;20107;-65
2023/12/12 04:59:48;;;;;;;18.35;7.75;;;;;;;;;;6268999;28;20664;-64
2023/12/12 05:02:48;;;;;;;17.20;6.80;;;;;;;;;;6265960;28;20049;-66
2023/12/12 05:05:49;;;;;;;15.13;6.28;;;;;;;;;;6267036;28;20061;-66
2023/12/12 05:08:50;;;;;;;15.80;6.13;;;;;;;;;;6267934;28;20060;-64
2023/12/12 05:11:50;;;;;;;14.25;5.97;;;;;;;;;;6266859;28;20110;-65
2023/12/12 05:14:51;;;;;;;14.02;6.15;;;;;;;;;;6260341;28;20073;-66
2023/12/12 05:17:51;;;;;;;14.30;6.20;;;;;;;;;;6264289;28;20056;-65
2023/12/12 05:20:52;;;;;;;18.58;6.75;;;;;;;;;;6266896;28;20059;-64
2023/12/12 05:23:53;;;;;;;14.52;6.32;;;;;;;;;;6266913;28;20040;-66
2023/12/12 05:26:55;;;;;;;20.85;7.75;;;;;;;;;;6264741;28;20096;-64
2023/12/12 05:29:56;;;;;;;18.65;6.53;;;;;;;;;;6265796;28;20079;-65
2023/12/12 05:32:57;;;;;;;19.25;6.85;;;;;;;;;;6266598;28;20045;-64
2023/12/12 05:35:57;;;;;;;13.00;6.22;;;;;;;;;;6266012;28;20551;-63
2023/12/12 05:38:58;;;;;;;17.23;6.03;;;;;;;;;;6267219;28;20052;-64
2023/12/12 05:41:59;;;;;;;17.48;6.63;;;;;;;;;;6268340;28;20045;-63
2023/12/12 05:44:59;;;;;;;16.60;6.88;;;;;;;;;;6265484;28;20130;-64
2023/12/12 05:48:03;;;;;;;17.42;7.32;;;;;;;;;;6266644;28;20483;-65
2023/12/12 05:51:04;;;;;;;14.32;7.00;;;;;;;;;;6265388;28;20049;-64
2023/12/12 05:54:04;;;;;;;17.55;7.30;;;;;;;;;;6262194;28;20048;-63
2023/12/12 05:57:05;;;;;;;17.75;7.63;;;;;;;;;;6265392;28;20148;-65
2023/12/12 06:00:07;;;;;;;14.75;7.20;;;;;;;;;;6265331;28;20045;-66
2023/12/12 06:03:08;;;;;;;14.43;6.80;;;;;;;;;;6263476;28;20139;-66
2023/12/12 06:06:09;;;;;;;16.20;8.00;;;;;;;;;;6264088;28;20055;-64
2023/12/12 06:09:11;;;;;;;17.43;8.10;;;;;;;;;;6265011;28;20037;-66
2023/12/12 06:12:11;;;;;;;19.48;8.13;;;;;;;;;;6263545;28;20041;-63
2023/12/12 06:15:12;;;;;;;15.23;7.57;;;;;;;;;;6264634;28;20144;-65
2023/12/12 06:18:13;;;;;;;20.30;8.27;;;;;;;;;;6266077;28;20486;-65
2023/12/12 06:21:13;;;;;;;18.98;8.00;;;;;;;;;;6265312;28;20060;-65
2023/12/12 06:24:14;;;;;;;19.38;8.25;;;;;;;;;;6265497;28;20049;-65
2023/12/12 06:27:15;;;;;;;21.67;8.38;;;;;;;;;;6263974;28;20063;-65
2023/12/12 06:30:16;;;;;;;20.27;8.13;;;;;;;;;;6266142;28;20041;-64
2023/12/12 06:33:18;;;;;;;20.98;8.65;;;;;;;;;;6265319;28;20051;-66
2023/12/12 06:36:19;;;;;;;20.85;8.55;;;;;;;;;;6262066;28;20049;-67
2023/12/12 06:39:20;;;;;;;19.38;8.13;;;;;;;;;;6264665;28;20052;-64
2023/12/12 06:42:21;;;;;;;16.98;8.13;;;;;;;;;;6264164;28;20059;-66
2023/12/12 06:45:21;;;;;;;16.85;7.55;;;;;;;;;;6263202;28;20533;-65
2023/12/12 06:48:22;;;;;;;19.17;8.05;;;;;;;;;;6264381;28;20183;-66
2023/12/12 06:51:24;;;;;;;22.02;8.27;;;;;;;;;;6263560;28;20488;-64
2023/12/12 06:54:24;;;;;;;19.05;8.48;;;;;;;;;;6264088;28;20056;-66
2023/12/12 06:57:25;;;;;;;20.45;9.75;;;;;;;;;;6264541;28;20048;-63
2023/12/12 07:00:26;;;;;;;22.70;9.70;;;;;;;;;;6265214;28;20055;-65
2023/12/12 07:03:27;;;;;;;23.40;9.07;;;;;;;;;;6265171;28;20132;-66
2023/12/12 07:06:28;;;;;;;20.40;8.88;;;;;;;;;;6263708;28;20051;-65
2023/12/12 07:09:28;;;;;;;28.20;11.45;;;;;;;;;;6263938;28;20052;-65
2023/12/12 07:12:29;;;;;;;26.02;10.30;;;;;;;;;;6266605;28;20080;-64
2023/12/12 07:15:30;;;;;;;20.00;8.95;;;;;;;;;;6264023;28;20048;-66
2023/12/12 07:18:30;;;;;;;21.13;8.32;;;;;;;;;;6265456;28;20049;-65
2023/12/12 07:21:38;;;;;;;22.70;8.90;;;;;;;;;;6265485;28;20052;-65
2023/12/12 07:24:42;;;;;;;20.77;8.73;;;;;;;;;;6263916;28;20052;-66
2023/12/12 07:27:43;;;;;;;19.73;8.15;;;;;;;;;;6262197;28;20041;-66
2023/12/12 07:30:44;;;;;;;23.50;10.00;;;;;;;;;;6264421;28;20049;-65
2023/12/12 07:33:45;;;;;;;18.70;7.57;;;;;;;;;;6264182;28;20472;-66
2023/12/12 07:36:46;;;;;;;25.38;11.30;;;;;;;;;;6262361;28;20055;-65
2023/12/12 07:39:47;;;;;;;24.35;10.40;;;;;;;;;;6263362;28;20143;-65
2023/12/12 07:42:47;;;;;;;20.75;8.95;;;;;;;;;;6264433;28;20434;-66
2023/12/12 07:45:48;;;;;;;20.60;9.60;;;;;;;;;;6261938;28;20562;-67
2023/12/12 07:48:49;;;;;;;20.42;9.35;;;;;;;;;;6264971;28;20090;-66
2023/12/12 07:51:51;;;;;;;27.50;9.88;;;;;;;;;;6263635;28;20055;-66
2023/12/12 07:54:51;;;;;;;19.85;9.25;;;;;;;;;;6264923;28;20056;-66
2023/12/12 07:57:52;;;;;;;22.60;8.63;;;;;;;;;;6268821;28;20484;-66
2023/12/12 08:00:52;;;;;;;21.05;9.35;;;;;;;;;;6268655;28;20065;-66
2023/12/12 08:03:53;;;;;;;19.23;8.38;;;;;;;;;;6268543;28;20397;-66
2023/12/12 08:06:54;;;;;;;18.80;8.27;;;;;;;;;;6268515;28;20056;-65
2023/12/12 08:09:55;;;;;;;19.00;8.27;;;;;;;;;;6269132;28;20048;-65
2023/12/12 08:12:57;;;;;;;20.67;9.00;;;;;;;;;;6269296;28;20103;-65
2023/12/12 08:15:58;;;;;;;;;;;;;;;;;;6269576;28;20124;-66
2023/12/12 08:18:58;;;;;;;21.15;8.43;;;;;;;;;;6269460;28;19927;-66
2023/12/12 08:21:59;;;;;;;19.45;8.23;;;;;;;;;;6268472;28;20143;-66
2023/12/12 08:25:00;;;;;;;21.92;8.85;;;;;;;;;;6267587;28;20041;-65
2023/12/12 08:28:03;;;;;;;31.77;12.43;;;;;;;;;;6268336;28;20049;-65
2023/12/12 08:31:05;;;;;;;24.33;11.48;;;;;;;;;;6268726;28;20048;-64
2023/12/12 08:34:06;;;;;;;29.15;12.45;;;;;;;;;;6268778;28;20045;-66
2023/12/12 08:37:06;;;;;;;25.80;11.30;;;;;;;;;;6267220;28;20041;-66
2023/12/12 08:40:09;;;;;;;24.38;10.93;;;;;;;;;;6268505;28;20048;-65
2023/12/12 08:43:10;;;;;;;28.48;12.95;;;;;;;;;;6268624;28;20144;-66
2023/12/12 08:46:11;;;;;;;24.40;11.40;;;;;;;;;;6266820;28;20063;-66
2023/12/12 08:49:12;;;;;;;25.25;10.68;;;;;;;;;;6267041;28;20053;-65
2023/12/12 08:52:14;;;;;;;27.77;11.45;;;;;;;;;;6266921;28;20446;-65
2023/12/12 08:55:14;;;;;;;27.25;12.18;;;;;;;;;;6267560;28;20128;-66
2023/12/12 08:58:15;;;;;;;26.17;12.20;;;;;;;;;;6267527;28;20055;-66
2023/12/12 09:01:16;;;;;;;25.50;13.32;;;;;;;;;;6267535;28;20543;-64
2023/12/12 09:04:17;;;;;;;24.95;11.35;;;;;;;;;;6266983;28;20468;-65
2023/12/12 09:07:18;;;;;;;20.13;10.15;;;;;;;;;;6267308;28;20041;-66
2023/12/12 09:10:18;;;;;;;18.77;9.57;;;;;;;;;;6268394;28;20041;-66
2023/12/12 09:13:19;;;;;;;24.25;11.05;;;;;;;;;;6267703;28;20056;-64
2023/12/12 09:16:20;;;;;;;27.05;11.27;;;;;;;;;;6265599;28;20472;-66
2023/12/12 09:19:21;;;;;;;26.50;11.52;;;;;;;;;;6268258;28;20583;-66
2023/12/12 09:22:21;;;;;;;22.38;11.38;;;;;;;;;;6265801;28;20136;-66
2023/12/12 09:25:22;;;;;;;21.60;10.48;;;;;;;;;;6264834;28;20479;-67
2023/12/12 09:28:23;;;;;;;22.73;11.13;;;;;;;;;;6266459;28;20483;-66
2023/12/12 09:31:26;;;;;;;23.58;11.20;;;;;;;;;;6268577;28;20377;-66
2023/12/12 09:34:27;;;;;;;24.60;10.55;;;;;;;;;;6267502;28;20414;-66
2023/12/12 09:37:28;;;;;;;20.95;11.07;;;;;;;;;;6266025;28;20049;-66
2023/12/12 09:40:30;;;;;;;19.70;10.13;;;;;;;;;;6266951;28;20055;-66
2023/12/12 09:43:33;;;;;;;21.70;11.77;;;;;;;;;;6266464;28;20507;-65
2023/12/12 09:46:35;;;;;;;22.23;10.80;;;;;;;;;;6265644;28;20053;-66
2023/12/12 09:49:36;;;;;;;21.03;10.43;;;;;;;;;;6265476;28;20529;-64
2023/12/12 09:52:37;;;;;;;21.33;10.33;;;;;;;;;;6265203;28;20041;-66
2023/12/12 09:55:39;;;;;;;17.52;8.25;;;;;;;;;;6264612;28;20053;-67
2023/12/12 09:58:40;;;;;;;17.15;8.73;;;;;;;;;;6266561;28;20131;-64
2023/12/12 10:01:44;;;;;;;17.10;8.32;;;;;;;;;;6267229;28;20102;-65
2023/12/12 10:04:45;;;;;;;16.85;7.72;;;;;;;;;;6263398;28;20592;-66
2023/12/12 10:07:47;;;;;;;13.63;7.07;;;;;;;;;;6265080;28;20040;-65
2023/12/12 10:10:52;;;;;;;16.30;7.47;;;;;;;;;;6266769;28;20132;-65
2023/12/12 10:13:56;;;;;;;19.85;7.70;;;;;;;;;;6266187;28;20136;-65
2023/12/12 10:17:02;;;;;;;19.77;7.57;;;;;;;;;;6265223;28;20053;-66
2023/12/12 10:20:06;;;;;;;14.85;7.30;;;;;;;;;;6264894;28;20044;-65
2023/12/12 10:23:07;;;;;;;18.25;7.22;;;;;;;;;;6265760;28;20045;-65
2023/12/12 10:26:07;;;;;;;17.95;8.00;;;;;;;;;;6262283;28;20053;-68
2023/12/12 10:29:10;;;;;;;16.33;7.45;;;;;;;;;;6265116;28;20037;-66
2023/12/12 10:32:13;;;;;;;16.90;7.45;;;;;;;;;;6266233;28;20041;-63
2023/12/12 10:35:14;;;;;;;15.60;7.38;;;;;;;;;;6265128;28;20446;-64
2023/12/12 10:38:15;;;;;;;18.92;8.18;;;;;;;;;;6264292;28;20098;-65
2023/12/12 10:41:18;;;;;;;19.63;8.18;;;;;;;;;;6265915;28;20132;-65
2023/12/12 10:44:21;;;;;;;18.08;8.05;;;;;;;;;;6266490;28;20102;-66
2023/12/12 10:47:23;;;;;;;19.55;8.13;;;;;;;;;;6265346;28;20128;-66
2023/12/12 10:50:27;;;;;;;19.63;7.93;;;;;;;;;;6263536;28;20179;-65
2023/12/12 10:53:29;;;;;;;16.80;7.65;;;;;;;;;;6264863;28;20041;-66
2023/12/12 10:56:35;;;;;;;20.55;8.85;;;;;;;;;;6265454;28;20450;-67
2023/12/12 10:59:38;;;;;;;22.33;8.95;;;;;;;;;;6264038;28;20037;-66
2023/12/12 11:02:43;;;;;;;18.95;8.27;;;;;;;;;;6265887;28;20045;-63
2023/12/12 11:05:46;;;;;;;18.25;7.93;;;;;;;;;;6266958;28;20080;-65
2023/12/12 11:08:46;;;;;;;;;;;;;;;;;;6264449;28;20056;-66
2023/12/12 11:11:49;;;;;;;17.80;8.38;;;;;;;;;;6263946;28;19927;-66
2023/12/12 11:14:51;;;;;;;22.50;8.75;;;;;;;;;;6264075;28;20067;-66
2023/12/12 11:17:52;;;;;;;24.38;8.98;;;;;;;;;;6264615;28;20094;-66
2023/12/12 11:20:53;;;;;;;22.02;8.45;;;;;;;;;;6264276;28;20405;-65
2023/12/12 11:23:53;;;;;;;18.30;8.27;;;;;;;;;;6265070;28;20501;-63
2023/12/12 11:26:54;;;;;;;16.33;7.78;;;;;;;;;;6264321;28;20150;-66
2023/12/12 11:29:55;;;;;;;18.15;8.30;;;;;;;;;;6264794;28;20445;-66
2023/12/12 11:32:56;;;;;;;22.42;8.75;;;;;;;;;;6268923;28;20098;-63
2023/12/12 11:35:57;;;;;;;19.33;8.75;;;;;;;;;;6257882;28;20040;-65
2023/12/12 11:39:04;;;;;;;20.85;7.45;;;;;;;;;;6268383;28;20075;-67
2023/12/12 11:42:06;;;;;;;19.83;8.20;;;;;;;;;;6269314;28;20072;-66
2023/12/12 11:45:08;;;;;;;20.08;8.85;;;;;;;;;;6266511;28;20423;-66
2023/12/12 11:48:09;;;;;;;18.98;7.75;;;;;;;;;;6269021;28;20051;-66
2023/12/12 11:51:33;;;;;;;19.70;8.18;;;;;;;;;;6269012;28;20048;-64
2023/12/12 11:54:35;;;;;;;17.55;7.53;;;;;;;;;;6253500;28;20542;-65
2023/12/12 11:57:36;;;;;;;18.77;7.75;;;;;;;;;;6269792;28;20064;-65
2023/12/12 12:00:40;;;;;;;19.42;8.07;;;;;;;;;;6268672;28;20056;-63
2023/12/12 12:03:41;;;;;;;19.35;7.82;;;;;;;;;;6256995;28;20060;-66
2023/12/12 12:06:43;;;;;;;16.52;7.57;;;;;;;;;;6269499;28;20041;-65
2023/12/12 12:09:43;;;;;;;18.33;8.37;;;;;;;;;;6268433;28;20140;-65
2023/12/12 12:12:54;;;;;;;18.40;8.38;;;;;;;;;;6267146;28;20045;-66
2023/12/12 12:15:55;;;;;;;18.92;8.43;;;;;;;;;;6270068;28;20053;-63
2023/12/12 12:18:56;;;;;;;19.70;7.80;;;;;;;;;;6268729;28;20047;-64
2023/12/12 12:22:02;;;;;;;20.92;7.85;;;;;;;;;;6267341;28;20049;-65
2023/12/12 12:25:04;;;;;;;19.08;8.65;;;;;;;;;;6267312;28;20437;-66
2023/12/12 12:28:04;;;;;;;13.98;7.25;;;;;;;;;;6268762;28;20049;-65
2023/12/12 12:31:05;;;;;;;20.08;8.25;;;;;;;;;;6268691;28;20136;-65
2023/12/12 12:34:17;;;;;;;18.75;7.50;;;;;;;;;;6269719;28;20045;-64
2023/12/12 12:37:33;;;;;;;17.50;7.93;;;;;;;;;;6269047;28;20215;-66
2023/12/12 12:40:36;;;;;;;18.17;7.85;;;;;;;;;;6268008;28;20488;-63
2023/12/12 12:43:37;;;;;;;21.40;8.27;;;;;;;;;;6266061;28;20139;-64
2023/12/12 12:46:37;;;;;;;20.80;8.88;;;;;;;;;;6268638;28;20052;-65
2023/12/12 12:49:38;;;;;;;25.02;9.35;;;;;;;;;;6252460;28;20050;-62
2023/12/12 12:52:39;;;;;;;22.25;9.93;;;;;;;;;;6243337;28;20054;-65
2023/12/12 12:55:42;;;;;;;22.92;9.35;;;;;;;;;;6248185;28;20045;-64
2023/12/12 12:58:43;;;;;;;18.35;7.95;;;;;;;;;;6245535;28;20061;-65
2023/12/12 13:01:47;;;;;;;18.45;7.60;;;;;;;;;;6243051;28;20768;-65
2023/12/12 13:04:47;;;;;;;17.48;7.28;;;;;;;;;;6244442;28;20049;-63
2023/12/12 13:07:48;;;;;;;14.82;7.15;;;;;;;;;;6250638;28;20064;-65
2023/12/12 13:10:49;;;;;;;14.55;6.32;;;;;;;;;;6242418;28;20152;-65
2023/12/12 13:13:50;;;;;;;18.23;7.95;;;;;;;;;;6244332;28;20057;-66
2023/12/12 13:16:51;;;;;;;17.60;7.07;;;;;;;;;;6244159;28;20057;-65
2023/12/12 13:19:51;;;;;;;17.30;8.25;;;;;;;;;;6240151;28;20068;-65
2023/12/12 13:22:52;;;;;;;26.00;9.95;;;;;;;;;;6241056;28;20052;-65
2023/12/12 13:25:54;;;;;;;28.50;11.23;;;;;;;;;;6243606;28;20188;-66
2023/12/12 13:28:55;;;;;;;28.07;11.20;;;;;;;;;;6247988;28;20052;-65
2023/12/12 13:31:57;;;;;;;29.52;12.70;;;;;;;;;;6242616;28;20302;-64
2023/12/12 13:34:57;;;;;;;55.17;25.17;;;;;;;;;;6242526;28;20060;-65
2023/12/12 13:37:58;;;;;;;34.83;16.13;;;;;;;;;;6250483;28;20802;-64
2023/12/12 13:40:58;;;;;;;25.25;11.73;;;;;;;;;;6239730;28;20527;-65
2023/12/12 13:43:59;;;;;;;18.63;8.52;;;;;;;;;;6242826;28;20064;-65
2023/12/12 13:47:00;;;;;;;20.45;10.07;;;;;;;;;;6247310;28;20094;-66
2023/12/12 13:50:01;;;;;;;17.73;9.30;;;;;;;;;;6237365;28;20061;-67
2023/12/12 13:53:03;;;;;;;23.52;11.07;;;;;;;;;;6246782;28;20053;-66
2023/12/12 13:56:04;;;;;;;21.77;9.70;;;;;;;;;;6242963;28;20161;-65
2023/12/12 13:59:05;;;;;;;22.17;9.70;;;;;;;;;;6244011;28;20128;-66
2023/12/12 14:02:06;;;;;;;18.73;9.82;;;;;;;;;;6241989;28;20051;-65
2023/12/12 14:05:07;;;;;;;26.60;12.30;;;;;;;;;;6243855;28;20056;-66
2023/12/12 14:08:08;;;;;;;25.05;12.00;;;;;;;;;;6243173;28;20045;-64
2023/12/12 14:11:08;;;;;;;34.83;14.00;;;;;;;;;;6240198;28;20415;-63
2023/12/12 14:14:10;;;;;;;30.75;12.23;;;;;;;;;;6245811;28;20146;-63
2023/12/12 14:17:11;;;;;;;31.50;14.47;;;;;;;;;;6246127;28;20579;-65
2023/12/12 14:20:12;;;;;;;24.58;11.63;;;;;;;;;;6246105;28;20053;-65
2023/12/12 14:23:12;;;;;;;25.27;12.52;;;;;;;;;;6245419;28;20053;-63
2023/12/12 14:26:13;;;;;;;24.13;14.48;;;;;;;;;;6245664;28;20613;-65
2023/12/12 14:29:14;;;;;;;23.02;12.15;;;;;;;;;;6246001;28;20053;-64
2023/12/12 14:32:17;;;;;;;27.63;14.32;;;;;;;;;;6244876;28;20484;-66
2023/12/12 14:35:17;;;;;;;27.85;15.93;;;;;;;;;;6240280;28;20159;-65
2023/12/12 14:38:18;;;;;;;33.60;20.42;;;;;;;;;;6244635;28;20499;-64
2023/12/12 14:41:19;;;;;;;32.50;19.13;;;;;;;;;;6241024;28;20056;-66
2023/12/12 14:44:20;;;;;;;32.90;16.38;;;;;;;;;;6241612;28;20491;-66
2023/12/12 14:47:20;;;;;;;47.05;24.00;;;;;;;;;;6245999;28;20048;-69
2023/12/12 14:50:21;;;;;;;37.58;19.13;;;;;;;;;;6242719;28;20139;-67
2023/12/12 14:53:22;;;;;;;27.70;15.00;;;;;;;;;;6244190;28;20061;-66
2023/12/12 14:56:23;;;;;;;26.48;13.43;;;;;;;;;;6241958;28;20080;-64
2023/12/12 14:59:23;;;;;;;27.73;14.23;;;;;;;;;;6245897;28;20678;-64
2023/12/12 15:02:27;;;;;;;28.25;14.95;;;;;;;;;;6241653;28;20224;-64
2023/12/12 15:05:27;;;;;;;29.70;14.23;;;;;;;;;;6240607;28;20636;-66
2023/12/12 15:08:28;;;;;;;42.85;20.98;;;;;;;;;;6238465;28;20549;-64
2023/12/12 15:11:29;;;;;;;27.25;11.23;;;;;;;;;;6246426;28;20067;-64
2023/12/12 15:14:30;;;;;;;27.40;12.63;;;;;;;;;;6241513;28;20191;-63
2023/12/12 15:17:31;;;;;;;28.45;13.02;;;;;;;;;;6247160;28;20570;-63
2023/12/12 15:20:32;;;;;;;29.58;16.45;;;;;;;;;;6243729;28;20060;-64
2023/12/12 15:23:33;;;;;;;37.03;20.77;;;;;;;;;;6245895;28;20041;-65
2023/12/12 15:26:34;;;;;;;34.53;16.75;;;;;;;;;;6242774;28;20699;-64
2023/12/12 15:29:34;;;;;;;37.60;17.55;;;;;;;;;;6258047;28;20044;-63
2023/12/12 15:32:36;;;;;;;29.45;13.20;;;;;;;;;;6261712;28;20083;-65
2023/12/12 15:35:36;;;;;;;35.00;15.57;;;;;;;;;;6240481;28;20129;-66
2023/12/12 15:38:37;;;;;;;41.70;21.33;;;;;;;;;;6243054;28;20048;-65
2023/12/12 15:41:38;;;;;;;40.08;23.48;;;;;;;;;;6245281;28;20057;-63
2023/12/12 15:44:39;;;;;;;52.83;30.58;;;;;;;;;;6239957;28;20160;-65
2023/12/12 15:47:39;;;;;;;36.63;17.52;;;;;;;;;;6245973;28;20487;-65
2023/12/12 15:50:40;;;;;;;45.22;22.90;;;;;;;;;;6243462;28;20583;-64
2023/12/12 15:53:41;;;;;;;41.78;22.73;;;;;;;;;;6240923;28;20064;-66
2023/12/12 15:56:42;;;;;;;39.88;20.70;;;;;;;;;;6246323;28;20056;-64
2023/12/12 15:59:42;;;;;;;49.20;23.98;;;;;;;;;;6243377;28;20041;-66
2023/12/12 16:02:43;;;;;;;36.45;18.90;;;;;;;;;;6240534;28;20567;-67
2023/12/12 16:05:44;;;;;;;38.78;21.35;;;;;;;;;;6243574;28;20100;-67
2023/12/12 16:08:45;;;;;;;48.97;29.52;;;;;;;;;;6244621;28;20425;-65
2023/12/12 16:11:46;;;;;;;34.15;18.30;;;;;;;;;;6239023;28;20052;-65
2023/12/12 16:14:47;;;;;;;38.03;21.98;;;;;;;;;;6239518;28;20056;-65
2023/12/12 16:17:50;;;;;;;41.13;23.35;;;;;;;;;;6240364;28;20065;-65
2023/12/12 16:20:51;;;;;;;46.55;23.50;;;;;;;;;;6244667;28;20072;-63
2023/12/12 16:23:52;;;;;;;42.85;22.30;;;;;;;;;;6244520;28;20055;-65
2023/12/12 16:26:53;;;;;;;156.88;75.10;;;;;;;;;;6242291;28;20484;-63
2023/12/12 16:29:54;;;;;;;134.63;63.10;;;;;;;;;;6244466;28;20056;-65
2023/12/12 16:32:59;;;;;;;140.43;59.08;;;;;;;;;;6244936;28;20044;-64
2023/12/12 16:35:59;;;;;;;103.50;36.50;;;;;;;;;;6243896;28;20060;-65
2023/12/12 16:39:00;;;;;;;192.02;72.15;;;;;;;;;;6245387;28;20571;-63
2023/12/12 16:42:04;;;;;;;103.75;39.33;;;;;;;;;;6242473;28;20115;-64
2023/12/12 16:45:05;;;;;;;106.55;39.50;;;;;;;;;;6242795;28;20496;-65
2023/12/12 16:48:06;;;;;;;90.53;31.98;;;;;;;;;;6246080;28;20103;-64
2023/12/12 16:51:09;;;;;;;85.97;26.75;;;;;;;;;;6244544;28;20049;-64
2023/12/12 16:54:10;;;;;;;71.07;22.40;;;;;;;;;;6243095;28;20174;-65
2023/12/12 16:57:10;;;;;;;58.53;20.23;;;;;;;;;;6246037;28;20539;-64
2023/12/12 17:00:13;;;;;;;38.17;15.70;;;;;;;;;;6247630;28;20049;-64
2023/12/12 17:03:14;;;;;;;38.90;13.68;;;;;;;;;;6245801;28;20057;-63
2023/12/12 17:06:15;;;;;;;35.38;13.38;;;;;;;;;;6244755;28;20126;-64
2023/12/12 17:09:17;;;;;;;38.10;14.93;;;;;;;;;;6249835;28;20392;-65
2023/12/12 17:12:21;;;;;;;42.25;15.82;;;;;;;;;;6249575;28;20045;-65
2023/12/12 17:15:22;;;;;;;51.38;17.52;;;;;;;;;;6243184;28;20531;-66
2023/12/12 17:18:23;;;;;;;62.15;20.60;;;;;;;;;;6246033;28;20258;-63
2023/12/12 17:21:23;;;;;;;59.60;20.90;;;;;;;;;;6245579;28;20052;-64
2023/12/12 17:24:24;;;;;;;47.97;18.23;;;;;;;;;;6248325;28;20060;-65
2023/12/12 17:27:25;;;;;;;55.58;19.83;;;;;;;;;;6251329;28;20076;-64
2023/12/12 17:30:26;;;;;;;60.58;22.17;;;;;;;;;;6243622;28;20049;-64
2023/12/12 17:33:27;;;;;;;41.47;18.23;;;;;;;;;;6242688;28;20064;-64
2023/12/12 17:36:27;;;;;;;37.53;13.73;;;;;;;;;;6259733;28;20418;-63
2023/12/12 17:39:28;;;;;;;29.30;13.13;;;;;;;;;;6245245;28;21416;-65
2023/12/12 17:42:29;;;;;;;36.60;16.33;;;;;;;;;;6243501;28;20053;-63
2023/12/12 17:45:31;;;;;;;334.45;117.72;;;;;;;;;;6243027;28;20406;-64